Portada
METAR-TAF:

METAR-TAF

Aeroports :

Shijiazhuang, Xina

latitud: 38-16-51N, longitud: 114-41-48E, altitud: 233 m

Observació

L'informe es va fer fa 32 minuts, a les 10:00 UTC
Vent 2 kt del Sud-Est
Temperatura 24°C
Humitat 69%
Pressió 1020 hPa
Visibilitat: 5000 m
calitja

METAR: ZBSJ 221000Z 14001MPS 5000 HZ NSC 24/18 Q1020 NOSIG

Hora: 18:32 (10:32 UTC)

Pronòstic

L'informe es va fer fa 9 hores i 21 minuts, a les 01:11 UTC
Pronòstic vàlid del 22 a les 06 UTC al 23 a les 06 UTC
Vent 8 kt del Est/Sud-Est
Visibilitat: 3000 m
boirina

TAF: ZBSJ 220111Z 2206/2306 12004MPS 3000 BR NSC TX25/2207Z TN16/2221Z

Observacions i pronòstics meteorològics de més de 4000 aeroports (METAR i TAF).

Les estacions disponibles són els punts grocs i vermells al mapa.

Posi el ratolí al punt desitjat per veure el nom de l'estació.

Feu clic per veure les observacions i els pronòstics meteorològics.

Per canviar el mapa: feu clic els botons verds amb una creu de color negre per apropar; al botó verd amb un guió per allunyar la imatge; o en les fletxes verdes per a mapes adjacents.


METAR-TAF: